»·PEaware :: GTH66 KGCN-CYVR

GTH66 :: KGCN-CYVR

FLIGHT INFORMATION

Flight Status: Arrived
Operator: Unknown
More flights by this operator :: More flights under this callsign
Pilot: James P. (1800)
Aircraft: BOEING 737-800
(B738)
More flights by this aircraft type
Origin: KGCN Grand Canyon Natl Park
United States
Destination: CYVR Vancouver Intl
Canada
More flights between these airports :: More routes between these airports
Route: PARKS2 PGS CDC ELY J523 SE
File this flight plan on PilotEdge
Remarks: GOTHAM
Altitude:
(Current/Filed)
20,000ft
Speed:
(Current/Filed)
400kts
Departed: 22-Apr-16 09:14 AM
Arrived: 22-Apr-16 11:31 AM
Distance/Time
Traveled:
930nm/2:17
Distance/Time
To Go:
Arrived

Flight Plot

Page will automatically refresh every two minutes.


Map Options




Map Legend


Flown Route
Filed Route
Departure Airport
Arrival Airport
Navaid (VOR, NDB)
Fix

Horizontal Profiles

Position Reports

Time Latitude Longitude Heading Altitude Ground
Speed
22-Apr-16 08:53 35.959420 -112.137025 42 6618ft 0kts
22-Apr-16 08:54 35.959420 -112.137025 42 6618ft 0kts
22-Apr-16 08:55 35.959420 -112.137025 42 6618ft 0kts
22-Apr-16 08:56 35.959420 -112.137025 42 6618ft 0kts
22-Apr-16 08:57 35.959420 -112.137025 42 6618ft 0kts
22-Apr-16 08:58 35.959420 -112.137025 42 6618ft 0kts
22-Apr-16 08:59 35.959420 -112.137025 42 6618ft 0kts
22-Apr-16 09:00 35.959420 -112.137025 42 6618ft 0kts
22-Apr-16 09:01 35.959420 -112.137025 42 6618ft 0kts
22-Apr-16 09:02 35.959435 -112.137009 40 6618ft 2kts
22-Apr-16 09:03 35.960936 -112.136248 350 6618ft 0kts
22-Apr-16 09:04 35.961535 -112.137143 261 6618ft 4kts
22-Apr-16 09:05 35.939083 -112.162772 223 7450ft 194kts
22-Apr-16 09:06 35.907868 -112.228400 264 10323ft 261kts
22-Apr-16 09:07 35.921282 -112.324967 274 12496ft 349kts
22-Apr-16 09:08 35.896172 -112.439167 243 16490ft 347kts
22-Apr-16 09:09 35.910282 -112.555056 298 19979ft 379kts
22-Apr-16 09:10 36.002615 -112.632547 328 20205ft 417kts
22-Apr-16 09:11 36.105952 -112.702135 326 20191ft 432kts
22-Apr-16 09:12 36.212219 -112.773722 326 20172ft 434kts
22-Apr-16 09:13 36.301337 -112.833050 326 20163ft 435kts
22-Apr-16 09:14 36.412528 -112.907036 326 20153ft 434kts
22-Apr-16 09:15 36.519044 -112.977970 326 20151ft 435kts
22-Apr-16 09:16 36.626140 -113.049341 326 20116ft 435kts
22-Apr-16 09:17 36.733203 -113.120771 326 20110ft 435kts
22-Apr-16 09:18 36.840367 -113.192343 326 20111ft 436kts
22-Apr-16 09:19 36.947562 -113.264079 326 20103ft 436kts
22-Apr-16 09:20 37.054821 -113.335833 326 20066ft 436kts
22-Apr-16 09:21 37.161827 -113.407533 326 20033ft 436kts
22-Apr-16 09:22 37.269100 -113.479461 326 20033ft 436kts
22-Apr-16 09:23 37.376187 -113.551456 326 20038ft 435kts
22-Apr-16 09:24 37.483561 -113.623575 326 20024ft 436kts
22-Apr-16 09:25 37.593213 -113.697375 326 20037ft 437kts
22-Apr-16 09:26 37.700320 -113.769544 326 20040ft 437kts
22-Apr-16 09:27 37.807798 -113.842040 326 20024ft 437kts
22-Apr-16 09:28 37.915364 -113.914635 326 20045ft 437kts
22-Apr-16 09:29 38.022966 -113.987315 327 20036ft 440kts
22-Apr-16 09:30 38.130722 -114.060421 325 20030ft 439kts
22-Apr-16 09:31 38.237974 -114.133865 326 20025ft 440kts
22-Apr-16 09:32 38.345579 -114.206824 326 20021ft 438kts
22-Apr-16 09:33 38.453430 -114.279925 326 20006ft 438kts
22-Apr-16 09:34 38.561352 -114.353170 326 20000ft 438kts
22-Apr-16 09:35 38.669201 -114.426449 326 19998ft 439kts
22-Apr-16 09:36 38.777560 -114.500208 326 19991ft 439kts
22-Apr-16 09:37 38.885676 -114.573893 326 19993ft 439kts
22-Apr-16 09:38 38.993755 -114.647597 327 19989ft 439kts
22-Apr-16 09:39 39.101988 -114.721486 327 19997ft 440kts
22-Apr-16 09:40 39.212128 -114.791437 330 19999ft 441kts
22-Apr-16 09:41 39.318630 -114.868389 314 19999ft 433kts
22-Apr-16 09:42 39.415089 -114.962103 320 19993ft 436kts
22-Apr-16 09:43 39.516144 -115.050490 320 19987ft 436kts
22-Apr-16 09:44 39.616866 -115.138754 320 19979ft 437kts
22-Apr-16 09:45 39.722543 -115.218616 326 19957ft 439kts
22-Apr-16 09:46 39.818923 -115.312907 312 19940ft 431kts
22-Apr-16 09:47 39.917107 -115.405579 320 19936ft 437kts
22-Apr-16 09:48 40.017313 -115.494924 321 19929ft 441kts
22-Apr-16 09:49 40.108885 -115.576552 321 19926ft 442kts
22-Apr-16 09:50 40.210710 -115.667388 321 19909ft 442kts
22-Apr-16 09:51 40.312566 -115.758421 321 19896ft 442kts
22-Apr-16 09:52 40.414325 -115.849706 321 19880ft 441kts
22-Apr-16 09:53 40.516535 -115.942203 321 19875ft 442kts
22-Apr-16 09:54 40.617740 -116.034258 320 19867ft 436kts
22-Apr-16 09:55 40.717975 -116.125688 320 19865ft 438kts
22-Apr-16 09:56 40.818503 -116.217466 320 19863ft 438kts
22-Apr-16 09:57 40.919150 -116.309510 320 19856ft 440kts
22-Apr-16 09:58 41.020143 -116.401982 320 19853ft 441kts
22-Apr-16 09:59 41.120971 -116.494436 320 19848ft 441kts
22-Apr-16 10:00 41.222349 -116.587527 320 19837ft 443kts
22-Apr-16 10:01 41.323806 -116.680993 320 19829ft 443kts
22-Apr-16 10:02 41.425258 -116.774925 320 19824ft 444kts
22-Apr-16 10:03 41.526711 -116.869376 320 19820ft 444kts
22-Apr-16 10:04 41.628067 -116.964136 320 19816ft 444kts
22-Apr-16 10:05 41.729101 -117.059065 320 19813ft 444kts
22-Apr-16 10:06 41.836767 -117.143074 323 19813ft 447kts
22-Apr-16 10:07 41.930475 -117.249373 315 19812ft 444kts
22-Apr-16 10:08 42.031073 -117.347147 320 19814ft 448kts
22-Apr-16 10:09 42.132850 -117.444568 320 19808ft 447kts
22-Apr-16 10:10 42.234301 -117.541887 320 19807ft 446kts
22-Apr-16 10:11 42.335498 -117.639409 320 19807ft 446kts
22-Apr-16 10:12 42.436357 -117.737039 320 19812ft 448kts
22-Apr-16 10:13 42.544245 -117.823475 326 19806ft 451kts
22-Apr-16 10:14 42.640364 -117.929788 317 19807ft 447kts
22-Apr-16 10:15 42.745025 -118.023771 323 19809ft 447kts
22-Apr-16 10:16 42.850320 -118.115294 323 19807ft 447kts
22-Apr-16 10:17 42.955540 -118.207052 323 19806ft 450kts
22-Apr-16 10:18 43.061218 -118.299417 323 19810ft 450kts
22-Apr-16 10:19 43.167079 -118.392465 323 19808ft 451kts
22-Apr-16 10:20 43.272966 -118.485691 323 19812ft 454kts
22-Apr-16 10:21 43.378735 -118.579303 323 19815ft 453kts
22-Apr-16 10:22 43.484824 -118.673451 323 19815ft 452kts
22-Apr-16 10:23 43.590679 -118.767870 323 19816ft 451kts
22-Apr-16 10:24 43.696205 -118.862575 323 19814ft 451kts
22-Apr-16 10:25 43.801343 -118.957186 323 19812ft 450kts
22-Apr-16 10:26 43.889053 -119.036360 323 19808ft 451kts
22-Apr-16 10:27 43.994240 -119.131641 323 19798ft 450kts
22-Apr-16 10:28 44.099788 -119.227623 323 19790ft 455kts
22-Apr-16 10:29 44.205930 -119.324397 323 19784ft 455kts
22-Apr-16 10:30 44.329653 -119.437816 323 19783ft 456kts
22-Apr-16 10:31 44.417601 -119.518874 323 19776ft 455kts
22-Apr-16 10:32 44.493235 -119.588908 323 19773ft 456kts
22-Apr-16 10:33 44.606064 -119.673289 329 19769ft 459kts
22-Apr-16 10:34 44.697405 -119.790531 303 19766ft 445kts
22-Apr-16 10:35 44.786597 -119.914640 313 19758ft 452kts
22-Apr-16 10:36 44.879126 -120.033732 313 19761ft 447kts
22-Apr-16 10:37 44.971148 -120.152444 313 19757ft 447kts
22-Apr-16 10:38 45.063296 -120.271719 313 19759ft 447kts
22-Apr-16 10:39 45.155264 -120.391221 313 19756ft 448kts
22-Apr-16 10:40 45.246826 -120.510725 313 19763ft 448kts
22-Apr-16 10:41 45.338541 -120.630972 313 19764ft 448kts
22-Apr-16 10:42 45.430074 -120.751478 313 19763ft 446kts
22-Apr-16 10:43 45.521203 -120.871989 313 19765ft 446kts
22-Apr-16 10:44 45.613472 -120.989182 322 19769ft 447kts
22-Apr-16 10:45 45.713579 -121.095261 319 19761ft 443kts
22-Apr-16 10:46 45.815710 -121.193708 332 19766ft 443kts
22-Apr-16 10:47 45.926583 -121.269447 333 19766ft 441kts
22-Apr-16 10:48 46.038234 -121.345808 333 19766ft 460kts
22-Apr-16 10:49 46.153784 -121.425144 333 19765ft 459kts
22-Apr-16 10:50 46.264863 -121.515386 328 19764ft 458kts
22-Apr-16 10:51 46.383744 -121.579997 350 19781ft 458kts
22-Apr-16 10:52 46.506767 -121.623385 329 19783ft 458kts
22-Apr-16 10:53 46.599855 -121.751132 326 19784ft 457kts
22-Apr-16 10:54 46.716259 -121.827828 335 19789ft 458kts
22-Apr-16 10:55 46.827514 -121.916434 324 19777ft 457kts
22-Apr-16 10:56 46.941092 -122.000817 336 19787ft 458kts
22-Apr-16 10:57 47.054948 -122.074349 335 19791ft 445kts
22-Apr-16 10:58 47.167591 -122.152205 335 19791ft 448kts
22-Apr-16 10:59 47.281330 -122.228530 335 19782ft 449kts
22-Apr-16 11:00 47.400892 -122.283276 339 19795ft 451kts
22-Apr-16 11:01 47.522654 -122.323124 350 19798ft 449kts
22-Apr-16 11:02 47.647141 -122.323298 5 19785ft 447kts
22-Apr-16 11:03 47.771791 -122.313233 9 19774ft 446kts
22-Apr-16 11:04 47.892740 -122.274680 8 19777ft 448kts
22-Apr-16 11:05 48.012796 -122.325804 343 19778ft 455kts
22-Apr-16 11:06 48.135875 -122.371031 339 19778ft 456kts
22-Apr-16 11:07 48.258440 -122.416684 352 19772ft 453kts
22-Apr-16 11:08 48.382926 -122.445094 355 19769ft 452kts
22-Apr-16 11:09 48.508864 -122.449388 357 19698ft 446kts
22-Apr-16 11:10 48.626762 -122.487115 354 17963ft 413kts
22-Apr-16 11:11 48.736216 -122.524554 343 16227ft 398kts
22-Apr-16 11:12 48.841238 -122.566168 346 13854ft 380kts
22-Apr-16 11:13 48.941354 -122.604764 346 11239ft 360kts
22-Apr-16 11:14 49.032656 -122.640590 347 8670ft 314kts
22-Apr-16 11:15 49.113327 -122.656468 356 6514ft 277kts
22-Apr-16 11:16 49.170341 -122.711155 273 4130ft 256kts
22-Apr-16 11:17 49.161587 -122.791380 265 3722ft 226kts
22-Apr-16 11:18 49.156813 -122.891237 266 3120ft 235kts
22-Apr-16 11:20 49.172748 -123.058665 280 1404ft 201kts
22-Apr-16 11:21 49.179076 -123.112360 279 544ft 181kts
22-Apr-16 11:22 49.186946 -123.179798 279 23ft 34kts
22-Apr-16 11:23 49.187015 -123.180398 279 23ft 0kts
22-Apr-16 11:24 49.187015 -123.180398 279 23ft 0kts
22-Apr-16 11:25 49.187015 -123.180398 279 23ft 0kts
22-Apr-16 11:26 49.187015 -123.180398 279 23ft 0kts
22-Apr-16 11:27 49.187561 -123.181106 356 23ft 11kts
22-Apr-16 11:28 49.191718 -123.181653 342 23ft 14kts
22-Apr-16 11:29 49.192065 -123.181827 341 23ft 0kts
22-Apr-16 11:30 49.192065 -123.181827 341 23ft 0kts
22-Apr-16 11:31 49.192065 -123.181827 341 23ft 0kts
22-Apr-16 11:32 49.192065 -123.181827 341 23ft 0kts
22-Apr-16 11:33 49.192065 -123.181827 341 23ft 0kts

Navigation Log

Ident Type
Flight plan parsing failed, navigation log unavailable